createdAt,value
2019-06-25T00:00:56.212Z,0.00
2019-06-25T00:01:56.230Z,0.00
2019-06-25T00:02:56.255Z,0.00
2019-06-25T00:03:56.278Z,0.00
2019-06-25T00:04:56.302Z,0.00
2019-06-25T00:05:56.330Z,0.00
2019-06-25T00:06:56.418Z,0.00
2019-06-25T00:07:56.380Z,0.00
2019-06-25T00:08:56.401Z,0.00
2019-06-25T00:09:56.424Z,0.00
2019-06-25T00:10:56.448Z,0.00
2019-06-25T00:11:56.490Z,0.00
2019-06-25T00:12:56.563Z,0.00
2019-06-25T00:13:56.574Z,0.00
2019-06-25T00:14:56.623Z,0.00
2019-06-25T00:15:56.614Z,0.00
2019-06-25T00:16:56.625Z,0.00
2019-06-25T00:17:56.616Z,0.00
2019-06-25T00:18:56.642Z,0.00
2019-06-25T00:19:56.662Z,0.00
2019-06-25T00:20:56.684Z,0.00
2019-06-25T00:21:56.709Z,0.00
2019-06-25T00:22:56.734Z,0.00
2019-06-25T00:23:56.756Z,0.00
2019-06-25T00:24:56.788Z,0.00
2019-06-25T00:25:56.804Z,0.00
2019-06-25T00:26:56.829Z,0.00
2019-06-25T00:27:56.853Z,0.00
2019-06-25T00:28:56.876Z,0.00
2019-06-25T00:29:56.900Z,0.00
2019-06-25T00:30:56.935Z,0.00
2019-06-25T00:31:56.949Z,0.00
2019-06-25T00:32:56.975Z,0.00
2019-06-25T00:33:56.995Z,0.00
2019-06-25T00:34:57.031Z,0.00
2019-06-25T00:35:57.056Z,0.00
2019-06-25T00:36:57.077Z,0.00
2019-06-25T00:37:57.101Z,0.00
2019-06-25T00:38:57.117Z,0.00
2019-06-25T00:39:57.146Z,0.00
2019-06-25T00:40:57.193Z,0.00
2019-06-25T00:41:57.191Z,0.00
2019-06-25T00:42:57.211Z,0.00
2019-06-25T00:43:57.235Z,0.00
2019-06-25T00:44:57.259Z,0.00
2019-06-25T00:45:58.016Z,0.00
2019-06-25T00:46:57.306Z,0.00
2019-06-25T00:47:57.327Z,0.00
2019-06-25T00:48:57.353Z,0.00
2019-06-25T00:49:57.377Z,0.00
2019-06-25T00:50:57.402Z,0.00
2019-06-25T00:51:57.426Z,0.00
2019-06-25T00:52:57.449Z,0.00
2019-06-25T00:53:57.472Z,0.00
2019-06-25T00:54:57.513Z,0.00
2019-06-25T00:55:57.519Z,0.00
2019-06-25T00:56:57.542Z,0.00
2019-06-25T00:57:57.566Z,0.00
2019-06-25T00:58:57.590Z,0.00
2019-06-25T01:00:11.893Z,0.00
2019-06-25T01:00:57.640Z,0.00
2019-06-25T01:01:57.658Z,0.00
2019-06-25T01:02:57.691Z,0.00
2019-06-25T01:03:57.707Z,0.00
2019-06-25T01:04:57.738Z,0.00
2019-06-25T01:05:57.755Z,0.00
2019-06-25T01:06:57.782Z,0.00
2019-06-25T01:07:57.801Z,0.00
2019-06-25T01:08:57.838Z,0.00
2019-06-25T01:09:57.852Z,0.00
2019-06-25T01:10:57.874Z,0.00
2019-06-25T01:11:57.897Z,0.00
2019-06-25T01:12:57.974Z,0.00
2019-06-25T01:13:57.944Z,0.00
2019-06-25T01:14:57.970Z,0.00
2019-06-25T01:15:57.988Z,0.00
2019-06-25T01:16:58.016Z,0.00
2019-06-25T01:17:58.054Z,0.00
2019-06-25T01:18:58.063Z,0.00
2019-06-25T01:19:58.088Z,0.00
2019-06-25T01:20:58.114Z,0.00
2019-06-25T01:21:58.134Z,0.00
2019-06-25T01:22:58.162Z,0.00
2019-06-25T01:23:58.183Z,0.00
2019-06-25T01:24:58.207Z,0.00
2019-06-25T01:25:58.228Z,0.00
2019-06-25T01:26:58.251Z,0.00
2019-06-25T01:27:58.276Z,0.00
2019-06-25T01:28:58.300Z,0.00
2019-06-25T01:29:58.320Z,0.00
2019-06-25T01:30:58.347Z,0.00
2019-06-25T01:31:58.395Z,0.00
2019-06-25T01:32:58.455Z,0.00
2019-06-25T01:33:58.464Z,0.00
2019-06-25T01:34:58.481Z,0.00
2019-06-25T01:35:58.520Z,0.00
2019-06-25T01:36:58.538Z,0.00
2019-06-25T01:37:58.519Z,0.00
2019-06-25T01:38:58.538Z,0.00
2019-06-25T01:39:58.557Z,0.00
2019-06-25T01:40:58.581Z,0.00
2019-06-25T01:41:58.608Z,0.00
2019-06-25T01:42:58.629Z,0.00
2019-06-25T01:43:58.652Z,0.00
2019-06-25T01:44:58.675Z,0.00
2019-06-25T01:45:58.700Z,0.00
2019-06-25T01:46:58.723Z,0.00
2019-06-25T01:47:58.745Z,0.00
2019-06-25T01:48:58.782Z,0.00
2019-06-25T01:49:58.811Z,0.00
2019-06-25T01:50:58.820Z,0.00
2019-06-25T01:51:58.839Z,0.00
2019-06-25T01:53:01.831Z,0.00
2019-06-25T01:53:58.896Z,0.00
2019-06-25T01:54:58.912Z,0.00
2019-06-25T01:55:58.937Z,0.00
2019-06-25T01:56:58.977Z,0.00
2019-06-25T01:57:58.981Z,0.00
2019-06-25T01:58:59.007Z,0.00
2019-06-25T01:59:59.035Z,0.00
2019-06-25T02:00:59.051Z,0.00
2019-06-25T02:01:59.073Z,0.00
2019-06-25T02:02:59.099Z,0.00
2019-06-25T02:03:59.121Z,0.00
2019-06-25T02:04:59.145Z,0.00
2019-06-25T02:05:59.170Z,0.00
2019-06-25T02:06:59.196Z,0.00
2019-06-25T02:07:59.217Z,0.00
2019-06-25T02:08:59.251Z,0.00
2019-06-25T02:09:59.263Z,0.00
2019-06-25T02:10:59.288Z,0.00
2019-06-25T02:11:59.308Z,0.00
2019-06-25T02:12:59.331Z,0.00
2019-06-25T02:13:59.357Z,0.00
2019-06-25T02:14:59.377Z,0.00
2019-06-25T02:15:59.427Z,0.00
2019-06-25T02:16:59.425Z,0.00
2019-06-25T02:17:59.450Z,0.00
2019-06-25T02:18:59.497Z,0.00
2019-06-25T02:19:59.496Z,0.00
2019-06-25T02:20:59.520Z,0.00
2019-06-25T02:21:59.543Z,0.00
2019-06-25T02:22:59.566Z,0.00
2019-06-25T02:23:59.595Z,0.00
2019-06-25T02:24:59.613Z,0.00
2019-06-25T02:25:59.634Z,0.00
2019-06-25T02:26:59.659Z,0.00
2019-06-25T02:27:59.682Z,0.00
2019-06-25T02:28:59.706Z,0.00
2019-06-25T02:29:59.735Z,0.00
2019-06-25T02:31:07.322Z,0.00
2019-06-25T02:31:59.783Z,0.00
2019-06-25T02:32:59.797Z,0.00
2019-06-25T02:33:59.821Z,0.00
2019-06-25T02:34:59.845Z,0.00
2019-06-25T02:35:59.867Z,5.63
2019-06-25T02:36:59.895Z,5.63
2019-06-25T02:37:59.916Z,5.63
2019-06-25T02:38:59.938Z,5.63
2019-06-25T02:39:59.992Z,5.63
2019-06-25T02:40:59.985Z,5.63
2019-06-25T02:42:00.009Z,5.63
2019-06-25T02:43:00.031Z,5.63
2019-06-25T02:44:00.054Z,11.25
2019-06-25T02:45:00.075Z,11.25
2019-06-25T02:46:00.127Z,11.25
2019-06-25T02:47:00.127Z,11.25
2019-06-25T02:48:00.163Z,11.25
2019-06-25T02:49:00.239Z,11.25
2019-06-25T02:50:00.235Z,11.25
2019-06-25T02:51:00.226Z,11.25
2019-06-25T02:52:00.255Z,16.88
2019-06-25T02:53:00.259Z,16.88
2019-06-25T02:54:00.335Z,16.88
2019-06-25T02:55:00.363Z,16.88
2019-06-25T02:56:00.357Z,16.88
2019-06-25T02:57:00.399Z,22.50
2019-06-25T02:58:00.414Z,22.50
2019-06-25T02:59:00.424Z,22.50
2019-06-25T03:00:00.427Z,22.50
2019-06-25T03:01:00.445Z,28.13
2019-06-25T03:02:00.469Z,28.13
2019-06-25T03:03:00.492Z,28.13
2019-06-25T03:04:00.527Z,33.75
2019-06-25T03:05:00.537Z,33.75
2019-06-25T03:06:00.560Z,33.75
2019-06-25T03:07:00.590Z,39.38
2019-06-25T03:08:00.613Z,39.38
2019-06-25T03:09:00.634Z,39.38
2019-06-25T03:10:00.656Z,39.38
2019-06-25T03:11:00.676Z,39.38
2019-06-25T03:12:00.702Z,45.00
2019-06-25T03:13:00.724Z,45.00
2019-06-25T03:14:00.748Z,45.00
2019-06-25T03:15:00.768Z,45.00
2019-06-25T03:16:00.792Z,50.63
2019-06-25T03:17:00.815Z,50.63
2019-06-25T03:18:00.840Z,50.63
2019-06-25T03:19:00.861Z,50.63
2019-06-25T03:20:00.888Z,56.25
2019-06-25T03:21:00.906Z,56.25
2019-06-25T03:22:00.931Z,56.25
2019-06-25T03:23:00.958Z,56.25
2019-06-25T03:24:00.976Z,61.88
2019-06-25T03:25:01.002Z,61.88
2019-06-25T03:26:01.024Z,61.88
2019-06-25T03:27:01.054Z,61.88
2019-06-25T03:28:01.074Z,61.88
2019-06-25T03:29:01.090Z,61.88
2019-06-25T03:30:01.116Z,61.88
2019-06-25T03:31:01.166Z,67.50
2019-06-25T03:32:07.919Z,67.50
2019-06-25T03:33:01.200Z,67.50
2019-06-25T03:34:01.207Z,67.50
2019-06-25T03:35:01.232Z,73.13
2019-06-25T03:36:01.254Z,73.13
2019-06-25T03:37:01.276Z,73.13
2019-06-25T03:38:01.307Z,73.13
2019-06-25T03:39:01.323Z,73.13
2019-06-25T03:40:01.361Z,78.75
2019-06-25T03:41:01.368Z,78.75
2019-06-25T03:42:01.391Z,78.75
2019-06-25T03:43:01.420Z,78.75
2019-06-25T03:44:01.439Z,78.75
2019-06-25T03:45:01.461Z,78.75
2019-06-25T03:46:01.484Z,84.38
2019-06-25T03:47:01.708Z,84.38
2019-06-25T03:48:01.560Z,90.00
2019-06-25T03:49:01.554Z,90.00
2019-06-25T03:50:01.582Z,90.00
2019-06-25T03:51:01.603Z,95.63
2019-06-25T03:52:01.621Z,95.63
2019-06-25T03:53:01.646Z,95.63
2019-06-25T03:54:01.673Z,95.63
2019-06-25T03:55:01.693Z,101.25
2019-06-25T03:56:01.772Z,101.25
2019-06-25T03:57:01.739Z,106.88
2019-06-25T03:58:01.763Z,106.88
2019-06-25T03:59:01.787Z,106.88
2019-06-25T04:00:01.827Z,112.50
2019-06-25T04:01:02.135Z,112.50
2019-06-25T04:02:16.370Z,112.50
2019-06-25T04:03:02.076Z,112.50
2019-06-25T04:04:01.901Z,118.13
2019-06-25T04:05:01.926Z,118.13
2019-06-25T04:06:01.951Z,118.13
2019-06-25T04:07:01.970Z,123.75
2019-06-25T04:08:01.994Z,123.75
2019-06-25T04:09:02.016Z,123.75
2019-06-25T04:10:02.045Z,123.75
2019-06-25T04:11:02.069Z,123.75
2019-06-25T04:12:02.102Z,123.75
2019-06-25T04:13:02.110Z,123.75
2019-06-25T04:14:02.132Z,123.75
2019-06-25T04:15:02.190Z,123.75
2019-06-25T04:16:02.250Z,123.75
2019-06-25T04:17:02.266Z,123.75
2019-06-25T04:18:02.263Z,129.38
2019-06-25T04:19:02.316Z,129.38
2019-06-25T04:20:02.332Z,129.38
2019-06-25T04:21:02.320Z,129.38
2019-06-25T04:22:02.358Z,129.38
2019-06-25T04:23:02.346Z,135.00
2019-06-25T04:24:02.363Z,135.00
2019-06-25T04:25:02.388Z,140.63
2019-06-25T04:26:02.426Z,140.63
2019-06-25T04:27:02.439Z,146.25
2019-06-25T04:28:02.457Z,146.25
2019-06-25T04:29:02.481Z,146.25
2019-06-25T04:30:02.648Z,146.25
2019-06-25T04:31:02.536Z,146.25
2019-06-25T04:32:02.554Z,151.88
2019-06-25T04:33:02.575Z,151.88
2019-06-25T04:34:02.598Z,151.88
2019-06-25T04:35:02.620Z,151.88
2019-06-25T04:36:02.647Z,157.50
2019-06-25T04:37:02.670Z,157.50
2019-06-25T04:38:02.690Z,157.50
2019-06-25T04:39:02.716Z,157.50
2019-06-25T04:40:02.759Z,157.50
2019-06-25T04:41:02.760Z,157.50
2019-06-25T04:42:02.783Z,163.13
2019-06-25T04:43:02.808Z,163.13
2019-06-25T04:44:02.831Z,168.75
2019-06-25T04:45:02.854Z,168.75
2019-06-25T04:46:02.881Z,174.38
2019-06-25T04:47:02.900Z,174.38
2019-06-25T04:48:02.925Z,180.00
2019-06-25T04:49:02.958Z,180.00
2019-06-25T04:50:02.973Z,180.00
2019-06-25T04:51:02.994Z,185.63
2019-06-25T04:52:03.019Z,185.63
2019-06-25T04:53:03.086Z,185.63
2019-06-25T04:54:03.067Z,191.25
2019-06-25T04:55:03.096Z,191.25
2019-06-25T04:56:03.114Z,191.25
2019-06-25T04:57:03.134Z,196.88
2019-06-25T04:58:03.162Z,196.88
2019-06-25T04:59:03.181Z,196.88
2019-06-25T05:00:03.206Z,202.50
2019-06-25T05:01:03.229Z,202.50
2019-06-25T05:02:03.253Z,208.13
2019-06-25T05:03:03.283Z,202.50
2019-06-25T05:04:03.313Z,208.13
2019-06-25T05:05:03.324Z,213.75
2019-06-25T05:06:03.349Z,213.75
2019-06-25T05:07:03.374Z,213.75
2019-06-25T05:08:03.401Z,225.00
2019-06-25T05:09:03.426Z,241.88
2019-06-25T05:10:03.442Z,258.75
2019-06-25T05:11:03.467Z,309.38
2019-06-25T05:12:03.487Z,303.75
2019-06-25T05:13:03.512Z,275.63
2019-06-25T05:14:03.537Z,360.00
2019-06-25T05:15:03.560Z,388.13
2019-06-25T05:16:03.580Z,320.63
2019-06-25T05:17:03.611Z,331.88
2019-06-25T05:18:03.658Z,360.00
2019-06-25T05:19:03.655Z,365.63
2019-06-25T05:20:03.677Z,450.00
2019-06-25T05:21:03.733Z,545.63
2019-06-25T05:22:03.734Z,523.13
2019-06-25T05:23:03.751Z,562.50
2019-06-25T05:24:03.774Z,556.88
2019-06-25T05:25:03.798Z,500.63
2019-06-25T05:26:03.820Z,466.88
2019-06-25T05:27:03.846Z,658.13
2019-06-25T05:28:03.872Z,838.13
2019-06-25T05:29:03.900Z,888.75
2019-06-25T05:30:03.920Z,832.50
2019-06-25T05:31:03.944Z,776.25
2019-06-25T05:32:03.971Z,860.63
2019-06-25T05:33:05.685Z,832.50
2019-06-25T05:34:04.022Z,568.13
2019-06-25T05:35:04.052Z,410.63
2019-06-25T05:36:04.080Z,371.25
2019-06-25T05:37:04.168Z,371.25
2019-06-25T05:38:04.157Z,343.13
2019-06-25T05:39:04.225Z,320.63
2019-06-25T05:40:04.233Z,348.75
2019-06-25T05:41:04.222Z,354.38
2019-06-25T05:42:04.230Z,309.38
2019-06-25T05:43:04.259Z,303.75
2019-06-25T05:44:04.282Z,292.50
2019-06-25T05:45:04.394Z,286.88
2019-06-25T05:46:04.336Z,292.50
2019-06-25T05:47:04.359Z,286.88
2019-06-25T05:48:04.386Z,286.88
2019-06-25T05:49:04.412Z,292.50
2019-06-25T05:50:04.441Z,292.50
2019-06-25T05:51:04.463Z,298.13
2019-06-25T05:52:04.487Z,303.75
2019-06-25T05:53:04.518Z,315.00
2019-06-25T05:54:04.541Z,315.00
2019-06-25T05:55:04.567Z,315.00
2019-06-25T05:56:04.593Z,315.00
2019-06-25T05:57:04.617Z,315.00
2019-06-25T05:58:04.642Z,315.00
2019-06-25T05:59:04.679Z,320.63
2019-06-25T06:00:04.696Z,320.63
2019-06-25T06:01:04.720Z,326.25
2019-06-25T06:02:04.774Z,326.25
2019-06-25T06:03:16.582Z,337.50
2019-06-25T06:04:04.801Z,348.75
2019-06-25T06:05:04.826Z,399.38
2019-06-25T06:06:04.848Z,433.13
2019-06-25T06:07:04.874Z,455.63
2019-06-25T06:08:04.896Z,427.50
2019-06-25T06:09:04.931Z,405.00
2019-06-25T06:10:04.952Z,433.13
2019-06-25T06:11:04.976Z,444.38
2019-06-25T06:12:05.001Z,517.50
2019-06-25T06:13:05.057Z,579.38
2019-06-25T06:14:05.051Z,624.38
2019-06-25T06:15:05.078Z,635.63
2019-06-25T06:16:05.114Z,624.38
2019-06-25T06:17:05.129Z,421.88
2019-06-25T06:18:05.157Z,438.75
2019-06-25T06:19:05.183Z,495.00
2019-06-25T06:20:05.211Z,1141.88
2019-06-25T06:21:05.258Z,1603.13
2019-06-25T06:22:05.258Z,1687.50
2019-06-25T06:23:05.286Z,1698.75
2019-06-25T06:24:05.311Z,1732.50
2019-06-25T06:25:05.339Z,1749.38
2019-06-25T06:26:05.369Z,1766.25
2019-06-25T06:27:05.410Z,1586.25
2019-06-25T06:28:05.420Z,1293.75
2019-06-25T06:29:05.447Z,1136.25
2019-06-25T06:30:05.480Z,1366.88
2019-06-25T06:31:16.410Z,1440.00
2019-06-25T06:32:05.543Z,1783.13
2019-06-25T06:33:05.560Z,1867.50
2019-06-25T06:34:05.589Z,1828.13
2019-06-25T06:35:05.623Z,1687.50
2019-06-25T06:36:05.649Z,1333.13
2019-06-25T06:37:05.676Z,1490.63
2019-06-25T06:38:05.706Z,1698.75
2019-06-25T06:39:05.739Z,1946.25
2019-06-25T06:40:05.765Z,1996.88
2019-06-25T06:41:05.795Z,1996.88
2019-06-25T06:42:05.825Z,1996.88
2019-06-25T06:43:05.857Z,2030.63
2019-06-25T06:44:05.884Z,1951.88
2019-06-25T06:45:05.918Z,2008.13
2019-06-25T06:46:05.946Z,1985.63
2019-06-25T06:47:05.979Z,1968.75
2019-06-25T06:48:06.080Z,1968.75
2019-06-25T06:49:06.087Z,1974.38
2019-06-25T06:50:06.146Z,1991.25
2019-06-25T06:51:06.142Z,1968.75
2019-06-25T06:52:06.134Z,2036.25
2019-06-25T06:53:06.169Z,2041.88
2019-06-25T06:54:06.199Z,2041.88
2019-06-25T06:55:06.230Z,2053.13
2019-06-25T06:56:06.263Z,2092.50
2019-06-25T06:57:06.296Z,2075.63
2019-06-25T06:58:06.331Z,2075.63
2019-06-25T06:59:06.363Z,2109.38
2019-06-25T07:00:06.399Z,2137.50
2019-06-25T07:01:06.431Z,2182.50
2019-06-25T07:02:06.462Z,2154.38
2019-06-25T07:03:06.508Z,2109.38
2019-06-25T07:04:06.528Z,2092.50
2019-06-25T07:05:06.561Z,2092.50
2019-06-25T07:06:06.601Z,2075.63
2019-06-25T07:07:06.637Z,2081.25
2019-06-25T07:08:06.667Z,2064.38
2019-06-25T07:09:06.712Z,2081.25
2019-06-25T07:10:06.741Z,2070.00
2019-06-25T07:11:06.768Z,2092.50
2019-06-25T07:12:06.804Z,2171.25
2019-06-25T07:13:06.839Z,2193.75
2019-06-25T07:14:06.874Z,2205.00
2019-06-25T07:15:06.907Z,2255.63
2019-06-25T07:16:06.942Z,2300.63
2019-06-25T07:17:06.974Z,2272.50
2019-06-25T07:18:07.011Z,2272.50
2019-06-25T07:19:07.046Z,2266.88
2019-06-25T07:20:07.079Z,2379.38
2019-06-25T07:21:07.123Z,2407.50
2019-06-25T07:22:10.648Z,2475.00
2019-06-25T07:23:07.187Z,2356.88
2019-06-25T07:24:07.230Z,2362.50
2019-06-25T07:25:07.260Z,2424.38
2019-06-25T07:26:07.293Z,2525.63
2019-06-25T07:27:07.331Z,2475.00
2019-06-25T07:28:07.363Z,2430.00
2019-06-25T07:29:07.400Z,2435.63
2019-06-25T07:30:07.437Z,2452.50
2019-06-25T07:31:07.475Z,2430.00
2019-06-25T07:32:07.510Z,2362.50
2019-06-25T07:33:07.586Z,2323.13
2019-06-25T07:34:09.703Z,2278.13
2019-06-25T07:35:07.618Z,2300.63
2019-06-25T07:36:07.653Z,2418.75
2019-06-25T07:37:07.728Z,2430.00
2019-06-25T07:38:07.726Z,2531.25
2019-06-25T07:39:07.765Z,2441.25
2019-06-25T07:40:07.799Z,2548.13
2019-06-25T07:41:07.843Z,2559.38
2019-06-25T07:42:07.874Z,2531.25
2019-06-25T07:43:07.910Z,2593.13
2019-06-25T07:44:08.014Z,2671.88
2019-06-25T07:45:08.005Z,2739.38
2019-06-25T07:46:08.072Z,2711.25
2019-06-25T07:47:08.077Z,2677.50
2019-06-25T07:48:08.098Z,2700.00
2019-06-25T07:49:08.131Z,2711.25
2019-06-25T07:50:08.180Z,2722.50
2019-06-25T07:51:08.205Z,2615.63
2019-06-25T07:52:08.245Z,2604.38
2019-06-25T07:53:08.281Z,2615.63
2019-06-25T07:54:08.319Z,2452.50
2019-06-25T07:55:08.390Z,2446.88
2019-06-25T07:56:08.408Z,2531.25
2019-06-25T07:57:08.430Z,2593.13
2019-06-25T07:58:08.475Z,2581.88
2019-06-25T07:59:08.507Z,2531.25
2019-06-25T08:00:08.541Z,2587.50
2019-06-25T08:01:08.580Z,2542.50
2019-06-25T08:02:08.631Z,2593.13
2019-06-25T08:03:08.740Z,2559.38
2019-06-25T08:04:24.243Z,2677.50
2019-06-25T08:05:08.735Z,2874.38
2019-06-25T08:06:08.773Z,2925.00
2019-06-25T08:07:08.813Z,2908.13
2019-06-25T08:08:08.853Z,2908.13
2019-06-25T08:09:08.887Z,2919.38
2019-06-25T08:10:08.930Z,2919.38
2019-06-25T08:11:08.966Z,2958.75
2019-06-25T08:12:09.004Z,2958.75
2019-06-25T08:13:09.042Z,2981.25
2019-06-25T08:14:09.084Z,3015.00
2019-06-25T08:15:09.135Z,2970.00
2019-06-25T08:16:09.159Z,2941.88
2019-06-25T08:17:09.198Z,3026.25
2019-06-25T08:18:09.241Z,3054.38
2019-06-25T08:19:09.273Z,2953.13
2019-06-25T08:20:09.316Z,3015.00
2019-06-25T08:21:09.353Z,3003.75
2019-06-25T08:22:09.390Z,3026.25
2019-06-25T08:23:09.440Z,3031.88
2019-06-25T08:24:09.471Z,3003.75
2019-06-25T08:25:09.510Z,3043.13
2019-06-25T08:26:09.549Z,3099.38
2019-06-25T08:27:09.596Z,3054.38
2019-06-25T08:28:09.634Z,3065.63
2019-06-25T08:29:09.667Z,3144.38
2019-06-25T08:30:09.711Z,3161.25
2019-06-25T08:31:09.746Z,3048.75
2019-06-25T08:32:09.788Z,3138.75
2019-06-25T08:33:09.826Z,3105.00
2019-06-25T08:34:09.888Z,3054.38
2019-06-25T08:35:09.962Z,3076.88
2019-06-25T08:36:10.006Z,3116.25
2019-06-25T08:37:10.022Z,3138.75
2019-06-25T08:38:10.037Z,3127.50
2019-06-25T08:39:10.064Z,3076.88
2019-06-25T08:40:19.355Z,3121.88
2019-06-25T08:41:10.145Z,3155.63
2019-06-25T08:42:10.182Z,3189.38
2019-06-25T08:43:10.225Z,3285.00
2019-06-25T08:44:10.264Z,3217.50
2019-06-25T08:45:10.327Z,3166.88
2019-06-25T08:46:10.346Z,3346.88
2019-06-25T08:47:10.388Z,3380.63
2019-06-25T08:48:10.425Z,3279.38
2019-06-25T08:49:10.481Z,3335.63
2019-06-25T08:50:10.508Z,3335.63
2019-06-25T08:51:10.551Z,3448.13
2019-06-25T08:52:10.592Z,3532.50
2019-06-25T08:53:10.630Z,3515.63
2019-06-25T08:54:10.673Z,3566.25
2019-06-25T08:55:10.719Z,3487.50
2019-06-25T08:56:10.757Z,3487.50
2019-06-25T08:57:10.795Z,3521.25
2019-06-25T08:58:10.837Z,3493.13
2019-06-25T08:59:10.880Z,3414.38
2019-06-25T09:00:10.919Z,3397.50
2019-06-25T09:01:10.962Z,3493.13
2019-06-25T09:02:11.001Z,3420.00
2019-06-25T09:03:11.042Z,3498.75
2019-06-25T09:04:11.085Z,3476.25
2019-06-25T09:05:11.127Z,3555.00
2019-06-25T09:06:11.168Z,3493.13
2019-06-25T09:07:11.210Z,3459.38
2019-06-25T09:08:11.252Z,3420.00
2019-06-25T09:09:11.295Z,3296.25
2019-06-25T09:10:11.341Z,3442.50
2019-06-25T09:11:11.379Z,3510.00
2019-06-25T09:12:11.426Z,3431.25
2019-06-25T09:13:11.469Z,3290.63
2019-06-25T09:14:11.507Z,3543.75
2019-06-25T09:15:11.550Z,3549.38
2019-06-25T09:16:11.590Z,3504.38
2019-06-25T09:17:11.634Z,3633.75
2019-06-25T09:18:11.673Z,3712.50
2019-06-25T09:19:11.716Z,3751.88
2019-06-25T09:20:11.759Z,3695.63
2019-06-25T09:21:11.810Z,3673.13
2019-06-25T09:22:11.914Z,3616.88
2019-06-25T09:23:11.951Z,3594.38
2019-06-25T09:24:11.954Z,3622.50
2019-06-25T09:25:11.971Z,3684.38
2019-06-25T09:26:12.014Z,3701.25
2019-06-25T09:27:12.059Z,3802.50
2019-06-25T09:28:12.101Z,3628.13
2019-06-25T09:29:12.143Z,3746.25
2019-06-25T09:30:12.191Z,3735.00
2019-06-25T09:31:12.230Z,3577.50
2019-06-25T09:32:12.271Z,3493.13
2019-06-25T09:33:12.319Z,3200.63
2019-06-25T09:34:12.369Z,3324.38
2019-06-25T09:35:15.385Z,3510.00
2019-06-25T09:36:12.442Z,3251.25
2019-06-25T09:37:12.500Z,3138.75
2019-06-25T09:38:12.530Z,3144.38
2019-06-25T09:39:12.571Z,3735.00
2019-06-25T09:40:12.642Z,3825.00
2019-06-25T09:41:12.661Z,3684.38
2019-06-25T09:42:12.706Z,3825.00
2019-06-25T09:43:12.746Z,3926.25
2019-06-25T09:44:12.790Z,3729.38
2019-06-25T09:45:12.839Z,3830.63
2019-06-25T09:46:12.876Z,3909.38
2019-06-25T09:47:12.919Z,3763.13
2019-06-25T09:48:12.960Z,3965.63
2019-06-25T09:49:13.001Z,3982.50
2019-06-25T09:50:13.085Z,3976.88
2019-06-25T09:51:13.094Z,4016.25
2019-06-25T09:52:13.138Z,3993.75
2019-06-25T09:53:13.178Z,3510.00
2019-06-25T09:54:13.221Z,3583.13
2019-06-25T09:55:13.263Z,3678.75
2019-06-25T09:56:13.312Z,3808.13
2019-06-25T09:57:13.351Z,3853.13
2019-06-25T09:58:13.396Z,3555.00
2019-06-25T09:59:13.441Z,3611.25
2019-06-25T10:00:13.491Z,3611.25
2019-06-25T10:01:25.820Z,3661.88
2019-06-25T10:02:13.571Z,3796.88
2019-06-25T10:03:13.619Z,3622.50
2019-06-25T10:04:13.658Z,3521.25
2019-06-25T10:05:27.325Z,3678.75
2019-06-25T10:06:13.762Z,3853.13
2019-06-25T10:07:15.690Z,3881.25
2019-06-25T10:08:13.920Z,3701.25
2019-06-25T10:09:13.906Z,3639.38
2019-06-25T10:10:13.926Z,3808.13
2019-06-25T10:11:13.963Z,3740.63
2019-06-25T10:12:14.005Z,3403.13
2019-06-25T10:13:14.054Z,3234.38
2019-06-25T10:14:14.094Z,3684.38
2019-06-25T10:15:14.140Z,3729.38
2019-06-25T10:16:14.180Z,3735.00
2019-06-25T10:17:14.228Z,3830.63
2019-06-25T10:18:14.273Z,3256.88
2019-06-25T10:19:14.314Z,3256.88
2019-06-25T10:20:14.358Z,3526.88
2019-06-25T10:21:14.398Z,3931.88
2019-06-25T10:22:14.443Z,3943.13
2019-06-25T10:23:14.500Z,3920.63
2019-06-25T10:24:14.531Z,4055.63
2019-06-25T10:25:14.573Z,4083.75
2019-06-25T10:26:14.619Z,4089.38
2019-06-25T10:27:14.663Z,4140.00
2019-06-25T10:28:28.671Z,4038.75
2019-06-25T10:29:14.753Z,4027.50
2019-06-25T10:30:14.795Z,3993.75
2019-06-25T10:31:14.846Z,4162.50
2019-06-25T10:32:14.884Z,4010.63
2019-06-25T10:33:14.938Z,4156.88
2019-06-25T10:34:14.970Z,3960.00
2019-06-25T10:35:15.013Z,3943.13
2019-06-25T10:36:15.059Z,4050.00
2019-06-25T10:37:15.102Z,3481.88
2019-06-25T10:38:15.156Z,3465.00
2019-06-25T10:39:15.199Z,3256.88
2019-06-25T10:40:15.238Z,3105.00
2019-06-25T10:41:15.279Z,3082.50
2019-06-25T10:42:15.321Z,2784.38
2019-06-25T10:43:15.428Z,3048.75
2019-06-25T10:44:15.412Z,3273.75
2019-06-25T10:45:15.465Z,3751.88
2019-06-25T10:46:15.501Z,3791.25
2019-06-25T10:47:15.722Z,3915.00
2019-06-25T10:48:15.589Z,3712.50
2019-06-25T10:49:15.626Z,3808.13
2019-06-25T10:50:15.672Z,3780.00
2019-06-25T10:51:15.827Z,3796.88
2019-06-25T10:52:15.781Z,3870.00
2019-06-25T10:53:15.855Z,3262.50
2019-06-25T10:54:15.855Z,3133.13
2019-06-25T10:55:15.888Z,3290.63
2019-06-25T10:56:15.935Z,3796.88
2019-06-25T10:57:15.980Z,3780.00
2019-06-25T10:58:16.022Z,3813.75
2019-06-25T10:59:16.065Z,3397.50
2019-06-25T11:00:16.109Z,3121.88
2019-06-25T11:01:16.151Z,3690.00
2019-06-25T11:02:16.202Z,3836.25
2019-06-25T11:03:16.234Z,3960.00
2019-06-25T11:04:16.278Z,4156.88
2019-06-25T11:05:16.321Z,4066.88
2019-06-25T11:06:16.365Z,3886.88
2019-06-25T11:07:16.414Z,3735.00
2019-06-25T11:08:16.454Z,3948.75
2019-06-25T11:09:16.497Z,3915.00
2019-06-25T11:10:16.603Z,4083.75
2019-06-25T11:11:16.588Z,3976.88
2019-06-25T11:12:16.627Z,3858.75
2019-06-25T11:13:16.668Z,3965.63
2019-06-25T11:14:16.721Z,4010.63
2019-06-25T11:15:16.763Z,3948.75
2019-06-25T11:16:16.808Z,3830.63
2019-06-25T11:17:16.861Z,3549.38
2019-06-25T11:18:16.894Z,3110.63
2019-06-25T11:19:16.940Z,2626.88
2019-06-25T11:20:16.981Z,2705.63
2019-06-25T11:21:17.027Z,2385.00
2019-06-25T11:22:17.074Z,3318.75
2019-06-25T11:23:17.117Z,4190.63
2019-06-25T11:24:17.158Z,4106.25
2019-06-25T11:25:17.209Z,3982.50
2019-06-25T11:26:23.102Z,3853.13
2019-06-25T11:27:17.291Z,3886.88
2019-06-25T11:28:17.337Z,4117.50
2019-06-25T11:29:17.380Z,4016.25
2019-06-25T11:30:17.423Z,4185.00
2019-06-25T11:31:17.470Z,3892.50
2019-06-25T11:32:17.513Z,3673.13
2019-06-25T11:33:17.554Z,3588.75
2019-06-25T11:34:17.604Z,3757.50
2019-06-25T11:35:17.672Z,3881.25
2019-06-25T11:36:21.882Z,3836.25
2019-06-25T11:37:17.800Z,3594.38
2019-06-25T11:38:17.794Z,3498.75
2019-06-25T11:39:17.827Z,3166.88
2019-06-25T11:40:17.871Z,3138.75
2019-06-25T11:41:17.916Z,3425.63
2019-06-25T11:42:17.960Z,3369.38
2019-06-25T11:43:18.014Z,3161.25
2019-06-25T11:44:18.054Z,2857.50
2019-06-25T11:45:18.099Z,2531.25
2019-06-25T11:46:19.803Z,2593.13
2019-06-25T11:47:18.186Z,2587.50
2019-06-25T11:48:18.231Z,2941.88
2019-06-25T11:49:18.273Z,2930.63
2019-06-25T11:50:18.326Z,2835.00
2019-06-25T11:51:18.365Z,2688.75
2019-06-25T11:52:18.415Z,2401.88
2019-06-25T11:53:18.456Z,2081.25
2019-06-25T11:54:18.506Z,1822.50
2019-06-25T11:55:18.559Z,1906.88
2019-06-25T11:56:18.591Z,2070.00
2019-06-25T11:57:18.632Z,1974.38
2019-06-25T11:58:18.681Z,1800.00
2019-06-25T11:59:18.722Z,1873.13
2019-06-25T12:00:18.769Z,1968.75
2019-06-25T12:01:18.808Z,2244.38
2019-06-25T12:02:18.858Z,2250.00
2019-06-25T12:03:18.905Z,2362.50
2019-06-25T12:04:19.025Z,2413.13
2019-06-25T12:05:18.989Z,2356.88
2019-06-25T12:06:32.543Z,2356.88
2019-06-25T12:07:19.076Z,2373.75
2019-06-25T12:08:19.118Z,2351.25
2019-06-25T12:09:19.165Z,2143.13
2019-06-25T12:10:19.216Z,2823.75
2019-06-25T12:11:19.251Z,3420.00
2019-06-25T12:12:19.296Z,3999.38
2019-06-25T12:13:19.355Z,4455.00
2019-06-25T12:14:19.387Z,4702.50
2019-06-25T12:15:19.430Z,5011.88
2019-06-25T12:16:19.481Z,4882.50
2019-06-25T12:17:19.516Z,4950.00
2019-06-25T12:18:19.562Z,5433.75
2019-06-25T12:19:19.676Z,5855.63
2019-06-25T12:20:19.673Z,5653.13
2019-06-25T12:21:19.748Z,5068.13
2019-06-25T12:22:19.743Z,4522.50
2019-06-25T12:23:19.784Z,3864.38
2019-06-25T12:24:19.832Z,3791.25
2019-06-25T12:25:19.878Z,3667.50
2019-06-25T12:26:19.934Z,3448.13
2019-06-25T12:27:19.965Z,3650.63
2019-06-25T12:28:20.010Z,4860.00
2019-06-25T12:29:20.053Z,5450.63
2019-06-25T12:30:20.097Z,5355.00